createdAt,value
2019-05-11T00:01:09.075Z,99826.00
2019-05-11T00:03:37.069Z,99834.00
2019-05-11T00:06:04.992Z,99833.00
2019-05-11T00:08:32.849Z,99829.00
2019-05-11T00:11:00.813Z,99831.00
2019-05-11T00:13:28.708Z,99832.00
2019-05-11T00:15:56.659Z,99837.00
2019-05-11T00:18:24.582Z,99853.00
2019-05-11T00:20:52.518Z,99860.00
2019-05-11T00:23:20.495Z,99848.00
2019-05-11T00:25:48.497Z,99846.00
2019-05-11T00:28:16.469Z,99842.00
2019-05-11T00:30:44.452Z,99837.00
2019-05-11T00:33:13.518Z,99835.00
2019-05-11T00:35:41.417Z,99829.00
2019-05-11T00:38:09.365Z,99835.00
2019-05-11T00:40:37.280Z,99843.00
2019-05-11T00:43:05.211Z,99836.00
2019-05-11T00:45:33.098Z,99835.00
2019-05-11T00:48:01.015Z,99826.00
2019-05-11T00:50:38.771Z,99820.00
2019-05-11T00:52:58.722Z,99831.00
2019-05-11T00:55:26.665Z,99822.00
2019-05-11T00:57:54.579Z,99813.00
2019-05-11T01:00:22.591Z,99804.00
2019-05-11T01:02:50.498Z,99795.00
2019-05-11T01:05:18.416Z,99781.00
2019-05-11T01:07:46.317Z,99784.00
2019-05-11T01:10:23.625Z,99781.00
2019-05-11T01:12:44.091Z,99780.00
2019-05-11T01:15:12.074Z,99773.00
2019-05-11T01:17:40.030Z,99765.00
2019-05-11T01:20:08.802Z,99763.00
2019-05-11T01:22:36.693Z,99765.00
2019-05-11T01:25:04.787Z,99768.00
2019-05-11T01:27:32.621Z,99768.00
2019-05-11T01:30:00.477Z,99777.00
2019-05-11T01:32:28.374Z,99768.00
2019-05-11T01:34:56.246Z,99760.00
2019-05-11T01:37:24.150Z,99750.00
2019-05-11T01:39:52.075Z,99746.00
2019-05-11T01:42:19.992Z,99751.00
2019-05-11T01:44:47.854Z,99745.00
2019-05-11T01:47:15.775Z,99740.00
2019-05-11T01:49:43.681Z,99751.00
2019-05-11T01:52:11.580Z,99753.00
2019-05-11T01:54:39.473Z,99755.00
2019-05-11T01:57:07.437Z,99747.00
2019-05-11T01:59:35.323Z,99740.00
2019-05-11T02:02:03.366Z,99740.00
2019-05-11T02:04:31.344Z,99746.00
2019-05-11T02:06:59.223Z,99735.00
2019-05-11T02:09:27.119Z,99747.00
2019-05-11T02:11:55.378Z,99746.00
2019-05-11T02:14:23.232Z,99741.00
2019-05-11T02:16:51.205Z,99725.00
2019-05-11T02:19:19.057Z,99725.00
2019-05-11T02:21:46.960Z,99729.00
2019-05-11T02:24:14.811Z,99724.00
2019-05-11T02:26:42.702Z,99730.00
2019-05-11T02:29:11.522Z,99717.00
2019-05-11T02:31:39.390Z,99715.00
2019-05-11T02:34:07.271Z,99723.00
2019-05-11T02:36:35.142Z,99721.00
2019-05-11T02:39:05.690Z,99717.00
2019-05-11T02:41:36.731Z,99702.00
2019-05-11T02:44:04.009Z,99684.00
2019-05-11T02:46:31.883Z,99695.00
2019-05-11T02:49:00.050Z,99682.00
2019-05-11T02:51:28.862Z,99683.00
2019-05-11T02:53:57.906Z,99701.00
2019-05-11T02:56:26.210Z,99708.00
2019-05-11T02:58:54.199Z,99694.00
2019-05-11T03:01:22.184Z,99671.00
2019-05-11T03:03:50.050Z,99661.00
2019-05-11T03:06:17.891Z,99654.00
2019-05-11T03:08:45.772Z,99643.00
2019-05-11T03:11:13.625Z,99648.00
2019-05-11T03:13:41.513Z,99649.00
2019-05-11T03:16:10.581Z,99647.00
2019-05-11T03:18:38.510Z,99653.00
2019-05-11T03:21:06.428Z,99642.00
2019-05-11T03:23:34.416Z,99647.00
2019-05-11T03:26:02.276Z,99646.00
2019-05-11T03:28:30.124Z,99652.00
2019-05-11T03:30:58.021Z,99634.00
2019-05-11T03:33:25.934Z,99626.00
2019-05-11T03:35:53.758Z,99615.00
2019-05-11T03:38:21.758Z,99606.00
2019-05-11T03:40:49.640Z,99594.00
2019-05-11T03:43:17.537Z,99601.00
2019-05-11T03:45:45.424Z,99601.00
2019-05-11T03:48:13.286Z,99599.00
2019-05-11T03:50:41.552Z,99610.00
2019-05-11T03:53:09.415Z,99611.00
2019-05-11T03:55:37.315Z,99617.00
2019-05-11T03:58:05.239Z,99611.00
2019-05-11T04:00:33.116Z,99603.00
2019-05-11T04:03:01.007Z,99608.00
2019-05-11T04:05:28.944Z,99608.00
2019-05-11T04:07:56.912Z,99604.00
2019-05-11T04:10:38.381Z,99603.00
2019-05-11T04:13:06.284Z,99597.00
2019-05-11T04:15:34.236Z,99593.00
2019-05-11T04:18:02.138Z,99591.00
2019-05-11T04:20:30.163Z,99588.00
2019-05-11T04:22:59.069Z,99581.00
2019-05-11T04:25:27.027Z,99584.00
2019-05-11T04:27:54.921Z,99573.00
2019-05-11T04:30:22.839Z,99573.00
2019-05-11T04:32:50.741Z,99564.00
2019-05-11T04:35:18.696Z,99569.00
2019-05-11T04:37:46.725Z,99554.00
2019-05-11T04:40:14.655Z,99552.00
2019-05-11T04:42:54.527Z,99556.00
2019-05-11T04:45:12.457Z,99551.00
2019-05-11T04:47:40.405Z,99569.00
2019-05-11T04:50:08.485Z,99551.00
2019-05-11T04:52:36.309Z,99550.00
2019-05-11T04:55:04.556Z,99548.00
2019-05-11T04:57:32.407Z,99542.00
2019-05-11T05:00:00.348Z,99548.00
2019-05-11T05:02:28.210Z,99541.00
2019-05-11T05:04:56.108Z,99541.00
2019-05-11T05:07:24.049Z,99541.00
2019-05-11T05:09:51.977Z,99553.00
2019-05-11T05:12:19.852Z,99553.00
2019-05-11T05:14:48.673Z,99553.00
2019-05-11T05:17:16.553Z,99553.00
2019-05-11T05:19:44.492Z,99553.00
2019-05-11T05:22:12.364Z,99543.00
2019-05-11T05:24:40.299Z,99536.00
2019-05-11T05:27:08.289Z,99512.00
2019-05-11T05:29:36.195Z,99510.00
2019-05-11T05:32:04.147Z,99529.00
2019-05-11T05:34:32.074Z,99543.00
2019-05-11T05:36:59.987Z,99537.00
2019-05-11T05:39:27.925Z,99541.00
2019-05-11T05:41:57.413Z,99541.00
2019-05-11T05:44:27.900Z,99531.00
2019-05-11T05:46:55.921Z,99533.00
2019-05-11T05:49:23.782Z,99519.00
2019-05-11T05:51:51.718Z,99517.00
2019-05-11T05:54:19.713Z,99520.00
2019-05-11T05:56:47.720Z,99528.00
2019-05-11T05:59:16.741Z,99538.00
2019-05-11T06:01:44.701Z,99529.00
2019-05-11T06:04:12.619Z,99528.00
2019-05-11T06:06:40.567Z,99523.00
2019-05-11T06:09:08.578Z,99513.00
2019-05-11T06:11:36.586Z,99512.00
2019-05-11T06:14:04.665Z,99513.00
2019-05-11T06:16:32.581Z,99513.00
2019-05-11T06:19:00.601Z,99511.00
2019-05-11T06:21:28.740Z,99523.00
2019-05-11T06:23:56.708Z,99520.00
2019-05-11T06:26:24.662Z,99530.00
2019-05-11T06:28:52.652Z,99529.00
2019-05-11T06:31:20.649Z,99527.00
2019-05-11T06:33:48.673Z,99522.00
2019-05-11T06:36:16.583Z,99518.00
2019-05-11T06:38:44.531Z,99515.00
2019-05-11T06:41:12.535Z,99509.00
2019-05-11T06:43:40.427Z,99507.00
2019-05-11T06:46:08.469Z,99501.00
2019-05-11T06:48:36.393Z,99510.00
2019-05-11T06:51:04.373Z,99510.00
2019-05-11T06:53:32.336Z,99510.00
2019-05-11T06:56:00.342Z,99508.00
2019-05-11T06:58:28.276Z,99507.00
2019-05-11T07:00:56.220Z,99506.00
2019-05-11T07:03:24.240Z,99510.00
2019-05-11T07:05:52.222Z,99503.00
2019-05-11T07:08:20.258Z,99516.00
2019-05-11T07:10:48.127Z,99497.00
2019-05-11T07:13:16.081Z,99506.00
2019-05-11T07:15:44.060Z,99468.00
2019-05-11T07:18:12.114Z,99512.00
2019-05-11T07:20:50.122Z,99513.00
2019-05-11T07:23:11.372Z,99506.00
2019-05-11T07:25:39.410Z,99506.00
2019-05-11T07:28:07.530Z,99506.00
2019-05-11T07:30:36.385Z,99509.00
2019-05-11T07:33:04.423Z,99515.00
2019-05-11T07:35:32.830Z,99521.00
2019-05-11T07:38:00.864Z,99516.00
2019-05-11T07:40:28.836Z,99518.00
2019-05-11T07:42:59.008Z,99526.00
2019-05-11T07:45:28.316Z,99534.00
2019-05-11T07:47:58.775Z,99525.00
2019-05-11T07:50:28.351Z,99519.00
2019-05-11T07:52:58.787Z,99512.00
2019-05-11T07:55:28.239Z,99527.00
2019-05-11T07:57:58.623Z,99520.00
2019-05-11T08:00:28.034Z,99525.00
2019-05-11T08:02:58.420Z,99527.00
2019-05-11T08:05:28.348Z,99529.00
2019-05-11T08:07:56.690Z,99529.00
2019-05-11T08:10:24.714Z,99538.00
2019-05-11T08:12:52.693Z,99545.00
2019-05-11T08:15:20.584Z,99538.00
2019-05-11T08:17:49.014Z,99539.00
2019-05-11T08:20:18.663Z,99536.00
2019-05-11T08:22:48.177Z,99531.00
2019-05-11T08:25:18.193Z,99530.00
2019-05-11T08:27:48.577Z,99532.00
2019-05-11T08:30:18.814Z,99527.00
2019-05-11T08:32:49.310Z,99534.00
2019-05-11T08:35:17.976Z,99546.00
2019-05-11T08:37:47.883Z,99545.00
2019-05-11T08:40:18.399Z,99541.00
2019-05-11T08:42:48.243Z,99542.00
2019-05-11T08:45:23.718Z,99544.00
2019-05-11T08:47:48.504Z,99557.00
2019-05-11T08:50:18.542Z,99547.00
2019-05-11T08:52:47.937Z,99544.00
2019-05-11T08:55:18.754Z,99547.00
2019-05-11T08:57:47.983Z,99546.00
2019-05-11T09:00:18.205Z,99555.00
2019-05-11T09:02:49.822Z,99556.00
2019-05-11T09:05:18.515Z,99560.00
2019-05-11T09:07:48.328Z,99577.00
2019-05-11T09:10:18.602Z,99575.00
2019-05-11T09:12:48.705Z,99575.00
2019-05-11T09:15:29.909Z,99582.00
2019-05-11T09:17:48.613Z,99584.00
2019-05-11T09:20:17.995Z,99595.00
2019-05-11T09:22:48.513Z,99602.00
2019-05-11T09:25:18.378Z,99601.00
2019-05-11T09:27:48.257Z,99595.00
2019-05-11T09:30:18.469Z,99604.00
2019-05-11T09:32:47.822Z,99612.00
2019-05-11T09:35:18.658Z,99631.00
2019-05-11T09:37:48.240Z,99624.00
2019-05-11T09:40:18.252Z,99630.00
2019-05-11T09:42:47.901Z,99637.00
2019-05-11T09:45:18.426Z,99633.00
2019-05-11T09:47:47.747Z,99642.00
2019-05-11T09:50:17.839Z,99645.00
2019-05-11T09:52:46.054Z,99647.00
2019-05-11T09:55:14.359Z,99638.00
2019-05-11T09:57:42.432Z,99656.00
2019-05-11T10:00:10.997Z,99653.00
2019-05-11T10:02:39.067Z,99658.00
2019-05-11T10:05:08.367Z,99658.00
2019-05-11T10:07:38.097Z,99661.00
2019-05-11T10:10:08.934Z,99669.00
2019-05-11T10:12:37.985Z,99673.00
2019-05-11T10:15:08.365Z,99673.00
2019-05-11T10:17:38.300Z,99676.00
2019-05-11T10:20:09.146Z,99691.00
2019-05-11T10:22:38.463Z,99678.00
2019-05-11T10:25:09.155Z,99688.00
2019-05-11T10:27:38.311Z,99686.00
2019-05-11T10:30:08.435Z,99696.00
2019-05-11T10:32:37.905Z,99692.00
2019-05-11T10:35:07.974Z,99701.00
2019-05-11T10:37:38.893Z,99703.00
2019-05-11T10:40:09.507Z,99706.00
2019-05-11T10:42:38.026Z,99701.00
2019-05-11T10:45:08.845Z,99707.00
2019-05-11T10:47:38.254Z,99715.00
2019-05-11T10:50:08.551Z,99713.00
2019-05-11T10:52:37.879Z,99715.00
2019-05-11T10:55:08.632Z,99716.00
2019-05-11T10:57:38.730Z,99721.00
2019-05-11T11:00:08.799Z,99711.00
2019-05-11T11:02:38.445Z,99727.00
2019-05-11T11:05:10.253Z,99720.00
2019-05-11T11:07:38.605Z,99723.00
2019-05-11T11:10:08.846Z,99726.00
2019-05-11T11:12:38.455Z,99732.00
2019-05-11T11:15:07.976Z,99744.00
2019-05-11T11:17:38.205Z,99744.00
2019-05-11T11:20:08.643Z,99736.00
2019-05-11T11:22:43.488Z,99737.00
2019-05-11T11:25:07.949Z,99748.00
2019-05-11T11:27:38.033Z,99761.00
2019-05-11T11:30:08.943Z,99761.00
2019-05-11T11:32:38.336Z,99756.00
2019-05-11T11:35:08.520Z,99753.00
2019-05-11T11:37:38.735Z,99747.00
2019-05-11T11:40:08.406Z,99754.00
2019-05-11T11:42:37.761Z,99757.00
2019-05-11T11:45:08.015Z,99763.00
2019-05-11T11:47:38.353Z,99766.00
2019-05-11T11:50:09.126Z,99764.00
2019-05-11T11:52:38.273Z,99788.00
2019-05-11T11:55:08.308Z,99782.00
2019-05-11T11:57:38.016Z,99789.00
2019-05-11T12:00:09.146Z,99789.00
2019-05-11T12:02:38.760Z,99800.00
2019-05-11T12:05:08.801Z,99795.00
2019-05-11T12:07:38.658Z,99808.00
2019-05-11T12:10:07.961Z,99819.00
2019-05-11T12:12:38.441Z,99827.00
2019-05-11T12:15:05.863Z,99833.00
2019-05-11T12:17:34.000Z,99833.00
2019-05-11T12:20:02.062Z,99858.00
2019-05-11T12:22:30.157Z,99855.00
2019-05-11T12:24:58.892Z,99844.00
2019-05-11T12:27:28.705Z,99860.00
2019-05-11T12:29:58.163Z,99862.00
2019-05-11T12:32:38.298Z,99869.00
2019-05-11T12:35:06.149Z,99868.00
2019-05-11T12:37:42.965Z,99868.00
2019-05-11T12:40:11.452Z,99869.00
2019-05-11T12:42:39.455Z,99880.00
2019-05-11T12:45:08.519Z,99874.00
2019-05-11T12:47:38.514Z,99887.00
2019-05-11T12:50:09.281Z,99882.00
2019-05-11T12:52:38.340Z,99898.00
2019-05-11T12:55:08.691Z,99910.00
2019-05-11T12:57:38.624Z,99903.00
2019-05-11T13:00:08.799Z,99918.00
2019-05-11T13:02:38.805Z,99912.00
2019-05-11T13:05:08.818Z,99920.00
2019-05-11T13:07:39.277Z,99923.00
2019-05-11T13:10:09.010Z,99938.00
2019-05-11T13:12:38.603Z,99939.00
2019-05-11T13:15:08.526Z,99942.00
2019-05-11T13:17:38.399Z,99942.00
2019-05-11T13:20:08.649Z,99935.00
2019-05-11T13:22:38.198Z,99946.00
2019-05-11T13:25:08.601Z,99962.00
2019-05-11T13:27:38.598Z,99952.00
2019-05-11T13:30:07.967Z,99965.00
2019-05-11T13:32:38.427Z,99971.00
2019-05-11T13:35:06.229Z,99997.00
2019-05-11T13:37:34.219Z,99986.00
2019-05-11T13:40:02.263Z,99976.00
2019-05-11T13:42:30.314Z,99981.00
2019-05-11T13:44:58.514Z,99992.00
2019-05-11T13:47:28.307Z,99991.00
2019-05-11T13:49:58.262Z,99996.00
2019-05-11T13:52:28.514Z,100009.00
2019-05-11T13:54:58.313Z,100012.00
2019-05-11T13:57:28.486Z,100021.00
2019-05-11T13:59:58.000Z,100022.00
2019-05-11T14:02:28.409Z,100013.00
2019-05-11T14:04:57.890Z,100031.00
2019-05-11T14:07:27.598Z,100024.00
2019-05-11T14:09:55.657Z,100031.00
2019-05-11T14:12:23.819Z,100026.00
2019-05-11T14:14:51.777Z,100036.00
2019-05-11T14:17:20.360Z,100040.00
2019-05-11T14:19:49.450Z,100040.00
2019-05-11T14:22:18.936Z,100040.00
2019-05-11T14:24:48.303Z,100044.00
2019-05-11T14:27:17.828Z,100047.00
2019-05-11T14:29:48.074Z,100047.00
2019-05-11T14:32:17.688Z,100059.00
2019-05-11T14:34:48.346Z,100058.00
2019-05-11T14:37:18.043Z,100063.00
2019-05-11T14:39:48.142Z,100064.00
2019-05-11T14:42:21.667Z,100070.00
2019-05-11T14:44:48.247Z,100082.00
2019-05-11T14:47:18.046Z,100089.00
2019-05-11T14:49:49.237Z,100099.00
2019-05-11T14:52:18.743Z,100088.00
2019-05-11T14:54:48.548Z,100111.00
2019-05-11T14:57:18.680Z,100121.00
2019-05-11T14:59:48.259Z,100135.00
2019-05-11T15:02:34.852Z,100155.00
2019-05-11T15:05:02.969Z,100154.00
2019-05-11T15:07:31.043Z,100161.00
2019-05-11T15:09:59.128Z,100167.00
2019-05-11T15:12:28.733Z,100164.00
2019-05-11T15:14:59.032Z,100182.00
2019-05-11T15:17:28.182Z,100216.00
2019-05-11T15:19:58.042Z,100206.00
2019-05-11T15:22:28.585Z,100207.00
2019-05-11T15:24:58.544Z,100208.00
2019-05-11T15:27:26.076Z,100228.00
2019-05-11T15:29:54.040Z,100233.00
2019-05-11T15:32:22.084Z,100223.00
2019-05-11T15:34:50.218Z,100236.00
2019-05-11T15:37:18.234Z,100233.00
2019-05-11T15:39:48.246Z,100238.00
2019-05-11T15:42:19.528Z,100241.00
2019-05-11T15:44:48.321Z,100253.00
2019-05-11T15:47:16.171Z,100261.00
2019-05-11T15:49:44.332Z,100272.00
2019-05-11T15:52:12.378Z,100287.00
2019-05-11T15:54:40.454Z,100290.00
2019-05-11T15:57:08.546Z,100287.00
2019-05-11T15:59:38.831Z,100295.00
2019-05-11T16:02:08.639Z,100209.00
2019-05-11T16:04:38.216Z,100296.00
2019-05-11T16:07:08.236Z,100290.00
2019-05-11T16:09:38.076Z,100299.00
2019-05-11T16:12:06.211Z,100306.00
2019-05-11T16:14:34.274Z,100305.00
2019-05-11T16:17:02.243Z,100308.00
2019-05-11T16:19:30.432Z,100316.00
2019-05-11T16:21:58.463Z,100332.00
2019-05-11T16:24:26.578Z,100320.00
2019-05-11T16:26:54.547Z,100317.00
2019-05-11T16:29:23.787Z,100341.00
2019-05-11T16:31:51.805Z,100355.00
2019-05-11T16:34:19.784Z,100350.00
2019-05-11T16:36:48.058Z,100360.00
2019-05-11T16:39:18.500Z,100375.00
2019-05-11T16:41:48.518Z,100402.00
2019-05-11T16:44:18.365Z,100406.00
2019-05-11T16:46:50.979Z,100403.00
2019-05-11T16:49:28.480Z,100420.00
2019-05-11T16:51:49.395Z,100421.00
2019-05-11T16:54:17.462Z,100421.00
2019-05-11T16:56:45.511Z,100428.00
2019-05-11T16:59:13.579Z,100421.00
2019-05-11T17:01:41.970Z,100427.00
2019-05-11T17:04:09.947Z,100408.00
2019-05-11T17:06:38.747Z,100439.00
2019-05-11T17:09:08.953Z,100450.00
2019-05-11T17:11:38.357Z,100455.00
2019-05-11T17:14:08.356Z,100463.00
2019-05-11T17:16:38.716Z,100466.00
2019-05-11T17:19:07.870Z,100474.00
2019-05-11T17:21:38.180Z,100495.00
2019-05-11T17:24:06.561Z,100494.00
2019-05-11T17:26:34.609Z,100519.00
2019-05-11T17:29:02.652Z,100509.00
2019-05-11T17:31:30.811Z,100504.00
2019-05-11T17:33:59.007Z,100527.00
2019-05-11T17:36:39.387Z,100533.00
2019-05-11T17:39:07.737Z,100535.00
2019-05-11T17:41:38.431Z,100539.00
2019-05-11T17:44:07.969Z,100544.00
2019-05-11T17:46:38.437Z,100550.00
2019-05-11T17:49:07.903Z,100550.00
2019-05-11T17:51:37.938Z,100574.00
2019-05-11T17:54:07.898Z,100563.00
2019-05-11T17:56:38.560Z,100573.00
2019-05-11T17:59:08.093Z,100575.00
2019-05-11T18:01:36.021Z,100597.00
2019-05-11T18:04:07.975Z,100599.00
2019-05-11T18:06:38.296Z,100598.00
2019-05-11T18:09:08.446Z,100604.00
2019-05-11T18:11:38.054Z,100609.00
2019-05-11T18:14:08.384Z,100615.00
2019-05-11T18:16:36.492Z,100609.00
2019-05-11T18:19:04.627Z,100615.00
2019-05-11T18:21:32.630Z,100610.00
2019-05-11T18:24:00.823Z,100638.00
2019-05-11T18:26:28.948Z,100628.00
2019-05-11T18:28:58.644Z,100642.00
2019-05-11T18:31:28.537Z,100648.00
2019-05-11T18:33:58.091Z,100657.00
2019-05-11T18:36:28.785Z,100659.00
2019-05-11T18:38:56.295Z,100678.00
2019-05-11T18:41:24.741Z,100661.00
2019-05-11T18:43:52.810Z,100691.00
2019-05-11T18:46:21.028Z,100694.00
2019-05-11T18:48:51.068Z,100705.00
2019-05-11T18:51:19.395Z,100714.00
2019-05-11T18:53:48.304Z,100716.00
2019-05-11T18:56:20.260Z,100719.00
2019-05-11T18:58:48.245Z,100729.00
2019-05-11T19:01:17.846Z,100736.00
2019-05-11T19:03:47.897Z,100741.00
2019-05-11T19:06:18.398Z,100746.00
2019-05-11T19:08:47.858Z,100749.00
2019-05-11T19:11:18.292Z,100751.00
2019-05-11T19:13:47.801Z,100760.00
2019-05-11T19:16:19.552Z,100768.00
2019-05-11T19:18:48.768Z,100771.00
2019-05-11T19:21:18.017Z,100780.00
2019-05-11T19:23:48.603Z,100780.00
2019-05-11T19:26:17.832Z,100796.00
2019-05-11T19:28:46.203Z,100804.00
2019-05-11T19:31:15.285Z,100806.00
2019-05-11T19:33:45.676Z,100813.00
2019-05-11T19:36:13.954Z,100820.00
2019-05-11T19:38:41.991Z,100824.00
2019-05-11T19:41:10.110Z,100833.00
2019-05-11T19:43:38.320Z,100844.00
2019-05-11T19:46:08.661Z,100839.00
2019-05-11T19:48:38.477Z,100834.00
2019-05-11T19:51:09.138Z,100833.00
2019-05-11T19:53:38.442Z,100845.00
2019-05-11T19:56:07.796Z,100852.00
2019-05-11T19:58:38.069Z,100858.00
2019-05-11T20:01:08.482Z,100860.00
2019-05-11T20:03:37.865Z,100855.00
2019-05-11T20:06:08.542Z,100849.00
2019-05-11T20:08:35.941Z,100855.00
2019-05-11T20:11:03.929Z,100855.00
2019-05-11T20:13:32.071Z,100851.00
2019-05-11T20:16:00.210Z,100858.00
2019-05-11T20:18:28.911Z,100865.00
2019-05-11T20:20:57.349Z,100862.00
2019-05-11T20:23:25.366Z,100871.00
2019-05-11T20:25:54.609Z,100876.00
2019-05-11T20:28:22.679Z,100880.00
2019-05-11T20:30:50.828Z,100879.00
2019-05-11T20:33:19.125Z,100889.00
2019-05-11T20:35:48.768Z,100878.00
2019-05-11T20:38:18.718Z,100887.00
2019-05-11T20:40:48.424Z,100881.00
2019-05-11T20:43:18.540Z,100888.00
2019-05-11T20:45:48.586Z,100901.00
2019-05-11T20:48:18.479Z,100894.00
2019-05-11T20:50:48.361Z,100902.00
2019-05-11T20:53:18.028Z,100895.00
2019-05-11T20:55:47.936Z,100906.00
2019-05-11T20:58:18.820Z,100916.00
2019-05-11T21:00:46.056Z,100915.00
2019-05-11T21:03:14.110Z,100919.00
2019-05-11T21:05:42.017Z,100924.00
2019-05-11T21:08:10.905Z,100926.00
2019-05-11T21:10:39.902Z,100934.00
2019-05-11T21:13:08.570Z,100931.00
2019-05-11T21:15:38.493Z,100925.00
2019-05-11T21:18:08.078Z,100935.00
2019-05-11T21:20:38.013Z,100935.00
2019-05-11T21:23:08.263Z,100939.00
2019-05-11T21:25:37.799Z,100936.00
2019-05-11T21:28:08.308Z,100943.00
2019-05-11T21:30:39.660Z,100944.00
2019-05-11T21:33:08.476Z,100952.00
2019-05-11T21:35:38.454Z,100961.00
2019-05-11T21:38:06.151Z,100964.00
2019-05-11T21:40:34.215Z,100970.00
2019-05-11T21:43:02.254Z,100973.00
2019-05-11T21:45:30.225Z,100972.00
2019-05-11T21:47:58.265Z,100976.00
2019-05-11T21:50:27.968Z,100977.00
2019-05-11T21:52:56.099Z,100974.00
2019-05-11T21:55:24.097Z,100984.00
2019-05-11T21:57:52.152Z,100983.00
2019-05-11T22:00:21.003Z,100979.00
2019-05-11T22:02:50.865Z,100981.00
2019-05-11T22:05:20.840Z,100978.00
2019-05-11T22:07:54.978Z,100984.00
2019-05-11T22:10:23.033Z,100982.00
2019-05-11T22:12:51.093Z,100991.00
2019-05-11T22:15:19.188Z,100992.00
2019-05-11T22:17:48.037Z,100995.00
2019-05-11T22:20:18.441Z,100996.00
2019-05-11T22:22:47.660Z,100999.00
2019-05-11T22:25:18.037Z,101005.00
2019-05-11T22:27:45.665Z,101008.00
2019-05-11T22:30:14.887Z,101009.00
2019-05-11T22:32:42.860Z,101018.00
2019-05-11T22:35:10.849Z,101016.00
2019-05-11T22:37:40.029Z,101030.00
2019-05-11T22:40:09.008Z,101025.00
2019-05-11T22:42:37.066Z,101028.00
2019-05-11T22:45:08.508Z,101034.00
2019-05-11T22:47:38.829Z,101035.00
2019-05-11T22:50:07.876Z,101029.00
2019-05-11T22:52:37.345Z,101029.00
2019-05-11T22:55:08.884Z,101042.00
2019-05-11T22:57:38.085Z,101039.00
2019-05-11T23:00:08.218Z,101046.00
2019-05-11T23:02:38.361Z,101056.00
2019-05-11T23:05:08.581Z,101065.00
2019-05-11T23:07:37.722Z,101069.00
2019-05-11T23:10:08.625Z,101078.00
2019-05-11T23:12:38.389Z,101085.00
2019-05-11T23:15:12.099Z,101086.00
2019-05-11T23:17:40.689Z,101090.00
2019-05-11T23:20:09.890Z,101087.00
2019-05-11T23:22:56.051Z,101087.00
2019-05-11T23:25:18.757Z,101101.00
2019-05-11T23:27:48.642Z,101106.00
2019-05-11T23:30:19.631Z,101102.00
2019-05-11T23:32:49.012Z,101094.00
2019-05-11T23:35:38.195Z,101109.00
2019-05-11T23:38:06.232Z,101105.00
2019-05-11T23:40:34.155Z,101111.00
2019-05-11T23:43:02.117Z,101106.00
2019-05-11T23:45:29.999Z,101114.00
2019-05-11T23:47:58.899Z,101121.00
2019-05-11T23:50:28.127Z,101126.00
2019-05-11T23:53:06.231Z,101141.00
2019-05-11T23:55:28.727Z,101137.00
2019-05-11T23:57:57.620Z,101136.00
